Airfield :
LOGIN :

Register | Disclaimer

   EN    FR    IT 

 










Legend :    VFR   Marginal VFR   IFR   Intensive IFR   Very Intensive IFR
Visi :
Ceiling :
>= 8 km
>= 3000ft
5 to 8 km
1000 to 3000 ft
1500m to 5 km
500 to 1000 ft
800 to 1500m
200 to 500 ft
< 800m
< 200 ft
Symbols :   Thunderstorms  Fog  Heavy snow  Heavy precipitations  Wind > 20 kt
SIGMETs :     Misc.  Thunderstorms  Icing  Turbulence  Mountain Waves  Volcanic Ashes






- Airport Elevation : 978 ft
- IATA code : LNZ


LOWL - Linz

CURRENT METAR :
  • 070350Z 06005KT 9999 SCT050 14/14 Q1006 NOSIG

EXPIRED METARs :
  • 070320Z 05005KT 9999 BKN050 15/14 Q1006 NOSIG
  • 070250Z AUTO VRB02KT 9999 OVC050 15/14 Q1007
  • 070220Z AUTO 06004KT 9999 BKN050 15/14 Q1007
  • 070150Z AUTO VRB01KT 9999 SCT050 15/14 Q1007
  • 070120Z AUTO 06003KT 9999 FEW050 BKN060 15/14 Q1007

TAF TAF LOWL
Valid from the 07 at 00:00 until the 08 at 00:00 UTC


062315Z 0700/0724 06003KT 9999 SCT040 TX14/0700Z TN14/0701Z
TEMPO 0713/0724 28012KT SHRA BKN030
PROB40
TEMPO 0714/0718 4000 TSRA BKN030CB



MET'MAP, your aeronautical weather chart ! - Copyright ORBIFLY December 2007 - Disclaimer

ORBIFLY MET'MAP TEAM :

Programming & Development : Alexandra Zaïnal
Concept & original design : Baudouin d'Aumeries
Assistance for programming : Marc-Olivier Méhu
Technical & hardware support : Manuel Goepfert

Contact : metmap@orbifly.com




SOURCES & CREDITS :

   NOAA